Fairfield, Nebraska
Current Conditions -  °F | °C
As of 1:53 PM on Saturday 25 Oct 2014 (Local Time) from KHSI Reporting Station
Clear Clear  
Wind Chill: 73°   Ceiling: Unl
Heat Index: 73°   Visibility: 10mi
Dew Point: 43°   Wind: 10mph
Humidity: 34%   Direction: 120°ESE
Pressure: 30.07"   Gusts: NA
Location:  40.43°N, 98.11°W
Report Text: KHSI 251853Z AUTO 12009KT 10SM CLR 23/06 A3007 RMK AO2 SLP178 T02280061
Loading
Personal Weather Stations






























Interactive Weather Map
Tropical Storm Tracking
New forecast layout! Learn more

10-Day Weather Forecast

Advertisements
Track Severe Weather on mobile